createdAt,value
2022-11-12T00:01:07.463Z,1.13
2022-11-12T00:03:34.526Z,1.90
2022-11-12T00:06:01.441Z,1.45
2022-11-12T00:08:30.078Z,1.33
2022-11-12T00:10:57.367Z,1.23
2022-11-12T00:13:26.890Z,1.65
2022-11-12T00:15:56.245Z,1.15
2022-11-12T00:18:50.984Z,1.35
2022-11-12T00:21:17.840Z,0.90
2022-11-12T00:23:45.008Z,1.33
2022-11-12T00:26:11.858Z,1.45
2022-11-12T00:28:38.769Z,1.45
2022-11-12T00:31:10.680Z,1.85
2022-11-12T00:33:41.943Z,1.52
2022-11-12T00:36:09.854Z,1.52
2022-11-12T00:38:38.369Z,1.88
2022-11-12T00:41:05.470Z,2.20
2022-11-12T00:43:32.521Z,2.10
2022-11-12T00:45:59.295Z,2.17
2022-11-12T00:48:26.398Z,1.52
2022-11-12T00:51:00.459Z,2.47
2022-11-12T00:53:27.450Z,1.73
2022-11-12T00:55:59.573Z,1.67
2022-11-12T00:58:28.669Z,2.28
2022-11-12T01:00:55.638Z,1.83
2022-11-12T01:03:22.706Z,2.30
2022-11-12T01:05:49.576Z,2.03
2022-11-12T01:08:16.567Z,1.90
2022-11-12T01:10:43.474Z,2.80
2022-11-12T01:13:10.294Z,1.77
2022-11-12T01:15:42.329Z,2.28
2022-11-12T01:18:09.313Z,1.67
2022-11-12T01:20:38.245Z,1.85
2022-11-12T01:23:06.163Z,1.67
2022-11-12T01:25:32.884Z,1.70
2022-11-12T01:27:59.687Z,2.42
2022-11-12T01:30:26.510Z,3.78
2022-11-12T01:32:53.357Z,1.92
2022-11-12T01:35:20.133Z,2.65
2022-11-12T01:37:46.914Z,1.90
2022-11-12T01:40:15.228Z,1.52
2022-11-12T01:42:41.935Z,2.17
2022-11-12T01:45:17.853Z,2.50
2022-11-12T01:47:49.268Z,1.70
2022-11-12T01:50:27.382Z,2.90
2022-11-12T01:53:02.135Z,1.92
2022-11-12T01:55:32.702Z,2.75
2022-11-12T01:58:06.884Z,2.60
2022-11-12T02:00:33.680Z,2.78
2022-11-12T02:03:03.177Z,2.35
2022-11-12T02:05:31.602Z,2.95
2022-11-12T02:08:00.463Z,3.67
2022-11-12T02:10:27.715Z,4.32
2022-11-12T02:13:13.417Z,2.67
2022-11-12T02:15:41.696Z,2.92
2022-11-12T02:18:08.824Z,3.33
2022-11-12T02:20:37.957Z,3.90
2022-11-12T02:23:07.112Z,3.08
2022-11-12T02:25:35.211Z,2.42
2022-11-12T02:28:06.418Z,2.60
2022-11-12T02:30:46.616Z,2.38
2022-11-12T02:33:13.433Z,2.65
2022-11-12T02:35:40.523Z,1.48
2022-11-12T02:38:08.713Z,1.15
2022-11-12T02:40:35.729Z,1.85
2022-11-12T02:43:02.612Z,0.80
2022-11-12T02:45:30.773Z,0.70
2022-11-12T02:47:57.691Z,0.68
2022-11-12T02:50:24.508Z,0.82
2022-11-12T02:52:51.322Z,0.45
2022-11-12T02:55:18.250Z,0.80
2022-11-12T02:57:45.068Z,1.15
2022-11-12T03:00:13.612Z,0.88
2022-11-12T03:02:43.303Z,1.35
2022-11-12T03:05:11.011Z,1.17
2022-11-12T03:07:38.415Z,0.40
2022-11-12T03:10:05.914Z,1.38
2022-11-12T03:12:33.094Z,0.75
2022-11-12T03:15:02.429Z,0.90
2022-11-12T03:17:29.259Z,0.50
2022-11-12T03:19:56.042Z,1.13
2022-11-12T03:22:22.794Z,0.30
2022-11-12T03:24:49.555Z,1.10
2022-11-12T03:27:16.313Z,1.15
2022-11-12T03:29:43.029Z,0.90
2022-11-12T03:32:09.890Z,0.85
2022-11-12T03:34:36.637Z,2.17
2022-11-12T03:37:03.765Z,0.50
2022-11-12T03:39:30.493Z,0.80
2022-11-12T03:41:57.281Z,0.35
2022-11-12T03:44:24.054Z,0.28
2022-11-12T03:46:50.789Z,0.80
2022-11-12T03:49:17.620Z,0.75
2022-11-12T03:51:44.351Z,0.63
2022-11-12T03:54:11.088Z,0.90
2022-11-12T03:56:38.118Z,0.75
2022-11-12T03:59:05.519Z,1.63
2022-11-12T04:01:32.934Z,0.85
2022-11-12T04:03:59.732Z,0.88
2022-11-12T04:06:44.837Z,0.52
2022-11-12T04:09:11.738Z,3.15
2022-11-12T04:11:38.459Z,0.90
2022-11-12T04:14:05.266Z,1.90
2022-11-12T04:16:50.866Z,3.05
2022-11-12T04:19:36.469Z,1.70
2022-11-12T04:22:07.091Z,2.83
2022-11-12T04:24:54.825Z,1.88
2022-11-12T04:27:27.853Z,1.83
2022-11-12T04:30:13.933Z,1.58
2022-11-12T04:32:56.995Z,1.25
2022-11-12T04:35:26.055Z,1.55
2022-11-12T04:37:53.281Z,1.88
2022-11-12T04:40:40.159Z,0.85
2022-11-12T04:43:28.133Z,3.15
2022-11-12T04:45:55.451Z,3.40
2022-11-12T04:48:23.858Z,3.00
2022-11-12T04:50:58.248Z,2.00
2022-11-12T04:53:26.772Z,2.78
2022-11-12T04:55:55.945Z,1.80
2022-11-12T04:58:22.929Z,2.00
2022-11-12T05:00:50.769Z,2.30
2022-11-12T05:03:18.451Z,3.92
2022-11-12T05:05:45.361Z,2.63
2022-11-12T05:08:12.376Z,2.22
2022-11-12T05:10:39.171Z,2.88
2022-11-12T05:13:05.925Z,0.55
2022-11-12T05:15:32.660Z,2.08
2022-11-12T05:17:59.438Z,1.27
2022-11-12T05:20:26.257Z,1.70
2022-11-12T05:23:06.103Z,1.20
2022-11-12T05:25:35.631Z,1.00
2022-11-12T05:28:02.746Z,0.93
2022-11-12T05:30:29.545Z,1.45
2022-11-12T05:32:56.420Z,1.40
2022-11-12T05:35:23.199Z,2.05
2022-11-12T05:37:50.168Z,0.55
2022-11-12T05:40:16.922Z,2.13
2022-11-12T05:42:45.142Z,2.13
2022-11-12T05:45:11.875Z,0.95
2022-11-12T05:47:38.606Z,1.75
2022-11-12T05:50:05.827Z,1.17
2022-11-12T05:52:32.597Z,1.73
2022-11-12T05:54:59.412Z,2.08
2022-11-12T05:57:27.813Z,1.15
2022-11-12T05:59:54.568Z,1.20
2022-11-12T06:02:21.495Z,1.55
2022-11-12T06:04:48.438Z,2.10
2022-11-12T06:07:15.249Z,1.55
2022-11-12T06:09:42.119Z,1.65
2022-11-12T06:12:08.921Z,5.20
2022-11-12T06:14:35.911Z,2.00
2022-11-12T06:17:02.604Z,2.92
2022-11-12T06:19:30.274Z,1.98
2022-11-12T06:21:57.111Z,2.58
2022-11-12T06:24:24.051Z,3.65
2022-11-12T06:26:51.044Z,4.18
2022-11-12T06:29:17.759Z,4.35
2022-11-12T06:31:44.519Z,2.72
2022-11-12T06:34:12.552Z,3.10
2022-11-12T06:36:39.423Z,1.70
2022-11-12T06:39:06.519Z,1.20
2022-11-12T06:41:33.636Z,4.22
2022-11-12T06:44:00.417Z,2.38
2022-11-12T06:46:27.252Z,3.92
2022-11-12T06:48:53.997Z,3.28
2022-11-12T06:51:24.226Z,3.63
2022-11-12T06:53:51.944Z,5.57
2022-11-12T06:56:18.755Z,2.92
2022-11-12T06:58:45.569Z,2.50
2022-11-12T07:01:17.375Z,3.60
2022-11-12T07:03:44.882Z,2.45
2022-11-12T07:06:14.137Z,4.38
2022-11-12T07:08:42.151Z,3.13
2022-11-12T07:11:09.540Z,2.60
2022-11-12T07:13:36.930Z,6.32
2022-11-12T07:16:06.119Z,6.53
2022-11-12T07:18:34.096Z,3.55
2022-11-12T07:21:06.508Z,4.05
2022-11-12T07:23:35.042Z,3.78
2022-11-12T07:26:02.053Z,8.38
2022-11-12T07:28:29.960Z,5.32
2022-11-12T07:31:03.970Z,4.85
2022-11-12T07:33:31.038Z,3.33
2022-11-12T07:36:18.008Z,2.53
2022-11-12T07:38:45.557Z,3.53
2022-11-12T07:41:14.302Z,4.88
2022-11-12T07:43:42.465Z,4.78
2022-11-12T07:46:13.345Z,3.78
2022-11-12T07:48:40.910Z,2.95
2022-11-12T07:51:33.775Z,3.33
2022-11-12T07:54:00.730Z,7.07
2022-11-12T07:56:28.577Z,11.27
2022-11-12T07:58:55.311Z,5.40
2022-11-12T08:01:36.593Z,8.50
2022-11-12T08:04:06.049Z,6.07
2022-11-12T08:06:33.661Z,6.22
2022-11-12T08:09:02.833Z,8.13
2022-11-12T08:11:29.531Z,7.50
2022-11-12T08:13:56.371Z,7.13
2022-11-12T08:16:23.211Z,5.93
2022-11-12T08:18:50.165Z,8.20
2022-11-12T08:21:19.125Z,6.43
2022-11-12T08:23:46.130Z,7.05
2022-11-12T08:26:16.042Z,7.13
2022-11-12T08:28:42.882Z,5.28
2022-11-12T08:31:12.485Z,12.02
2022-11-12T08:33:40.267Z,8.02
2022-11-12T08:36:10.592Z,7.78
2022-11-12T08:38:37.348Z,5.97
2022-11-12T08:41:06.715Z,4.85
2022-11-12T08:43:33.999Z,4.78
2022-11-12T08:46:01.735Z,9.68
2022-11-12T08:48:29.861Z,14.07
2022-11-12T08:50:57.010Z,7.55
2022-11-12T08:53:24.882Z,6.82
2022-11-12T08:55:56.087Z,6.70
2022-11-12T08:58:23.442Z,6.43
2022-11-12T09:00:51.084Z,14.38
2022-11-12T09:03:20.609Z,5.35
2022-11-12T09:05:47.837Z,9.30
2022-11-12T09:08:17.735Z,10.02
2022-11-12T09:10:45.305Z,6.13
2022-11-12T09:13:12.424Z,3.90
2022-11-12T09:15:39.230Z,8.00
2022-11-12T09:18:10.746Z,7.22
2022-11-12T09:20:37.696Z,7.43
2022-11-12T09:23:07.974Z,6.43
2022-11-12T09:25:35.079Z,9.93
2022-11-12T09:28:10.181Z,13.40
2022-11-12T09:30:38.192Z,19.00
2022-11-12T09:33:05.130Z,11.73
2022-11-12T09:35:32.157Z,11.93
2022-11-12T09:37:59.717Z,15.10
2022-11-12T09:40:37.043Z,9.63
2022-11-12T09:43:36.510Z,16.25
2022-11-12T09:46:34.813Z,13.50
2022-11-12T09:49:44.757Z,12.65
2022-11-12T09:52:26.445Z,16.83
2022-11-12T09:55:06.352Z,12.75
2022-11-12T09:57:33.594Z,16.75
2022-11-12T10:00:02.702Z,25.52
2022-11-12T10:02:42.801Z,21.70
2022-11-12T10:05:18.346Z,14.70
2022-11-12T10:08:06.792Z,16.50
2022-11-12T10:10:42.198Z,13.73
2022-11-12T10:13:20.922Z,14.80
2022-11-12T10:16:31.200Z,12.63
2022-11-12T10:19:36.868Z,13.75
2022-11-12T10:22:26.165Z,13.02
2022-11-12T10:24:54.775Z,12.48
2022-11-12T10:27:26.179Z,14.00
2022-11-12T10:30:00.327Z,17.13
2022-11-12T10:32:27.095Z,9.75
2022-11-12T10:34:54.036Z,11.88
2022-11-12T10:37:27.438Z,14.60
2022-11-12T10:39:54.524Z,18.25
2022-11-12T10:42:24.011Z,11.85
2022-11-12T10:44:51.940Z,9.35
2022-11-12T10:47:27.019Z,9.65
2022-11-12T10:50:02.299Z,9.77
2022-11-12T10:52:29.202Z,10.70
2022-11-12T10:55:16.439Z,2.08
2022-11-12T10:57:43.431Z,5.95
2022-11-12T11:00:12.917Z,3.10
2022-11-12T11:02:52.085Z,4.25
2022-11-12T11:05:35.375Z,5.10
2022-11-12T11:08:03.651Z,2.67
2022-11-12T11:10:39.484Z,2.45
2022-11-12T11:13:29.367Z,1.80
2022-11-12T11:16:07.738Z,2.88
2022-11-12T11:18:37.651Z,2.33
2022-11-12T11:21:41.816Z,3.03
2022-11-12T11:24:27.901Z,1.77
2022-11-12T11:27:03.396Z,1.40
2022-11-12T11:29:52.182Z,1.58
2022-11-12T11:32:37.806Z,1.73
2022-11-12T11:35:11.698Z,1.67
2022-11-12T11:38:10.598Z,0.68
2022-11-12T11:40:42.670Z,1.08
2022-11-12T11:43:12.095Z,2.92
2022-11-12T11:46:00.771Z,1.80
2022-11-12T11:48:53.705Z,1.52
2022-11-12T11:51:54.924Z,0.55
2022-11-12T11:54:39.539Z,3.38
2022-11-12T11:57:14.317Z,0.60
2022-11-12T11:59:53.130Z,1.80
2022-11-12T12:02:54.190Z,1.42
2022-11-12T12:05:29.823Z,1.65
2022-11-12T12:07:59.424Z,1.77
2022-11-12T12:11:01.662Z,1.27
2022-11-12T12:13:34.294Z,1.02
2022-11-12T12:16:51.955Z,1.05
2022-11-12T12:19:45.618Z,2.05
2022-11-12T12:22:24.023Z,3.07
2022-11-12T12:24:56.071Z,1.35
2022-11-12T12:27:31.017Z,1.92
2022-11-12T12:30:21.358Z,1.70
2022-11-12T12:32:57.050Z,1.20
2022-11-12T12:35:34.429Z,3.28
2022-11-12T12:38:18.724Z,5.53
2022-11-12T12:40:53.758Z,1.33
2022-11-12T12:43:23.035Z,0.90
2022-11-12T12:45:49.925Z,4.78
2022-11-12T12:48:29.858Z,2.67
2022-11-12T12:50:58.918Z,1.50
2022-11-12T12:53:25.768Z,2.55
2022-11-12T12:55:54.991Z,0.93
2022-11-12T12:58:45.591Z,1.67
2022-11-12T13:01:21.490Z,2.55
2022-11-12T13:04:03.367Z,0.93
2022-11-12T13:06:53.959Z,1.30
2022-11-12T13:09:26.289Z,1.17
2022-11-12T13:12:06.171Z,2.67
2022-11-12T13:14:36.110Z,3.42
2022-11-12T13:17:05.708Z,1.17
2022-11-12T13:19:58.491Z,1.58
2022-11-12T13:22:25.207Z,1.85
2022-11-12T13:25:28.886Z,1.13
2022-11-12T13:28:10.116Z,2.20
2022-11-12T13:30:36.867Z,2.75
2022-11-12T13:33:29.196Z,4.63
2022-11-12T13:36:36.133Z,2.25
2022-11-12T13:39:15.556Z,0.75
2022-11-12T13:42:01.011Z,2.20
2022-11-12T13:44:29.131Z,2.53
2022-11-12T13:46:56.871Z,2.40
2022-11-12T13:49:23.684Z,3.90
2022-11-12T13:51:53.271Z,1.20
2022-11-12T13:54:38.414Z,1.52
2022-11-12T13:57:15.322Z,2.63
2022-11-12T13:59:42.056Z,1.30
2022-11-12T14:02:27.414Z,0.50
2022-11-12T14:04:54.541Z,1.85
2022-11-12T14:07:27.158Z,1.33
2022-11-12T14:10:15.400Z,0.98
2022-11-12T14:13:05.886Z,1.70
2022-11-12T14:16:02.054Z,3.15
2022-11-12T14:18:40.182Z,1.15
2022-11-12T14:21:11.201Z,1.45
2022-11-12T14:23:38.523Z,3.53
2022-11-12T14:26:05.419Z,0.93
2022-11-12T14:28:34.370Z,1.08
2022-11-12T14:31:02.574Z,3.25
2022-11-12T14:33:31.150Z,1.20
2022-11-12T14:36:13.941Z,11.55
2022-11-12T14:38:44.797Z,13.48
2022-11-12T14:41:20.455Z,6.22
2022-11-12T14:44:11.118Z,5.88
2022-11-12T14:46:54.097Z,8.25
2022-11-12T14:49:53.025Z,14.93
2022-11-12T14:52:23.307Z,13.68
2022-11-12T14:55:09.850Z,21.75
2022-11-12T14:57:36.980Z,19.23
2022-11-12T15:00:42.095Z,5.55
2022-11-12T15:03:13.720Z,3.38
2022-11-12T15:06:11.493Z,4.20
2022-11-12T15:08:40.324Z,4.60
2022-11-12T15:11:25.988Z,3.88
2022-11-12T15:13:56.547Z,4.45
2022-11-12T15:16:29.362Z,5.63
2022-11-12T15:19:07.768Z,4.18
2022-11-12T15:21:35.058Z,4.03
2022-11-12T15:24:20.826Z,5.22
2022-11-12T15:26:50.711Z,5.07
2022-11-12T15:29:27.269Z,3.92
2022-11-12T15:32:13.716Z,1.90
2022-11-12T15:34:41.029Z,5.03
2022-11-12T15:37:10.951Z,1.70
2022-11-12T15:39:44.446Z,1.48
2022-11-12T15:42:21.469Z,1.58
2022-11-12T15:44:48.921Z,3.22
2022-11-12T15:47:24.219Z,1.42
2022-11-12T15:49:53.590Z,1.55
2022-11-12T15:52:21.138Z,2.10
2022-11-12T15:54:48.194Z,2.00
2022-11-12T15:57:23.981Z,2.13
2022-11-12T16:00:15.530Z,3.42
2022-11-12T16:02:44.703Z,2.03
2022-11-12T16:05:17.081Z,2.00
2022-11-12T16:07:44.067Z,2.63
2022-11-12T16:10:15.993Z,3.33
2022-11-12T16:12:56.419Z,2.13
2022-11-12T16:15:25.584Z,1.42
2022-11-12T16:17:54.638Z,1.83
2022-11-12T16:20:27.049Z,2.83
2022-11-12T16:22:53.845Z,1.55
2022-11-12T16:25:20.834Z,1.52
2022-11-12T16:27:52.927Z,2.22
2022-11-12T16:30:25.424Z,2.25
2022-11-12T16:32:52.454Z,1.02
2022-11-12T16:35:20.218Z,1.45
2022-11-12T16:37:47.745Z,1.95
2022-11-12T16:40:17.697Z,5.78
2022-11-12T16:42:47.894Z,2.45
2022-11-12T16:45:20.149Z,2.22
2022-11-12T16:47:53.681Z,2.55
2022-11-12T16:50:23.523Z,2.30
2022-11-12T16:52:50.929Z,2.72
2022-11-12T16:55:17.740Z,1.70
2022-11-12T16:57:44.979Z,2.20
2022-11-12T17:00:17.093Z,6.28
2022-11-12T17:02:47.278Z,2.25
2022-11-12T17:05:23.063Z,2.67
2022-11-12T17:07:54.551Z,3.00
2022-11-12T17:10:24.000Z,1.77
2022-11-12T17:12:52.377Z,3.25
2022-11-12T17:15:19.428Z,2.13
2022-11-12T17:17:46.244Z,2.40
2022-11-12T17:20:13.232Z,5.97
2022-11-12T17:22:39.999Z,4.93
2022-11-12T17:25:08.567Z,2.80
2022-11-12T17:27:35.586Z,3.85
2022-11-12T17:30:03.081Z,3.65
2022-11-12T17:32:29.978Z,4.45
2022-11-12T17:34:56.982Z,3.05
2022-11-12T17:37:23.842Z,3.25
2022-11-12T17:39:50.895Z,4.03
2022-11-12T17:42:17.750Z,2.40
2022-11-12T17:44:46.270Z,3.28
2022-11-12T17:47:14.524Z,4.50
2022-11-12T17:49:43.020Z,2.67
2022-11-12T17:52:10.492Z,3.85
2022-11-12T17:54:38.086Z,2.22
2022-11-12T17:57:04.986Z,2.05
2022-11-12T17:59:31.974Z,2.25
2022-11-12T18:01:59.028Z,2.47
2022-11-12T18:04:31.018Z,1.65
2022-11-12T18:06:59.731Z,2.50
2022-11-12T18:09:27.515Z,1.63
2022-11-12T18:12:01.461Z,2.40
2022-11-12T18:14:28.675Z,1.25
2022-11-12T18:16:59.004Z,1.42
2022-11-12T18:19:26.148Z,1.15
2022-11-12T18:21:57.160Z,2.15
2022-11-12T18:24:24.511Z,1.67
2022-11-12T18:26:51.655Z,2.42
2022-11-12T18:29:18.534Z,2.33
2022-11-12T18:31:46.560Z,2.22
2022-11-12T18:34:16.255Z,2.80
2022-11-12T18:36:44.292Z,2.53
2022-11-12T18:39:11.790Z,6.38
2022-11-12T18:41:38.934Z,3.25
2022-11-12T18:44:05.755Z,3.10
2022-11-12T18:46:32.608Z,1.90
2022-11-12T18:48:59.387Z,1.40
2022-11-12T18:51:26.651Z,2.25
2022-11-12T18:53:54.145Z,2.45
2022-11-12T18:56:22.000Z,1.52
2022-11-12T18:58:49.456Z,2.25
2022-11-12T19:01:21.114Z,3.55
2022-11-12T19:03:48.772Z,1.95
2022-11-12T19:06:16.795Z,1.70
2022-11-12T19:08:43.937Z,1.17
2022-11-12T19:11:12.922Z,1.83
2022-11-12T19:13:40.776Z,3.33
2022-11-12T19:16:12.790Z,2.25
2022-11-12T19:18:41.542Z,4.38
2022-11-12T19:21:11.171Z,1.90
2022-11-12T19:23:38.920Z,1.73
2022-11-12T19:26:08.115Z,1.90
2022-11-12T19:28:35.920Z,2.97
2022-11-12T19:31:16.906Z,2.35
2022-11-12T19:33:44.089Z,1.80
2022-11-12T19:36:16.555Z,3.50
2022-11-12T19:38:43.999Z,2.90
2022-11-12T19:41:19.670Z,2.20
2022-11-12T19:43:47.525Z,2.60
2022-11-12T19:46:14.755Z,1.80
2022-11-12T19:48:42.253Z,1.88
2022-11-12T19:51:10.850Z,2.15
2022-11-12T19:53:44.851Z,2.35
2022-11-12T19:56:14.234Z,2.78
2022-11-12T19:58:45.296Z,1.27
2022-11-12T20:01:14.802Z,2.10
2022-11-12T20:03:42.282Z,2.35
2022-11-12T20:06:15.165Z,2.50
2022-11-12T20:08:42.520Z,2.20
2022-11-12T20:11:10.218Z,2.08
2022-11-12T20:13:37.314Z,2.92
2022-11-12T20:16:14.354Z,2.83
2022-11-12T20:18:41.508Z,2.20
2022-11-12T20:21:10.271Z,2.22
2022-11-12T20:23:39.378Z,3.53
2022-11-12T20:26:09.823Z,2.13
2022-11-12T20:28:37.971Z,2.45
2022-11-12T20:31:07.398Z,2.08
2022-11-12T20:33:37.992Z,3.75
2022-11-12T20:36:17.388Z,1.88
2022-11-12T20:38:45.331Z,2.92
2022-11-12T20:41:17.469Z,2.80
2022-11-12T20:43:44.324Z,4.07
2022-11-12T20:46:12.358Z,3.25
2022-11-12T20:48:43.228Z,3.40
2022-11-12T20:51:24.335Z,2.75
2022-11-12T20:53:58.708Z,1.70
2022-11-12T20:56:27.748Z,5.18
2022-11-12T20:58:55.472Z,3.25
2022-11-12T21:01:24.285Z,2.97
2022-11-12T21:03:51.466Z,2.15
2022-11-12T21:06:20.718Z,3.22
2022-11-12T21:08:48.411Z,4.32
2022-11-12T21:11:17.709Z,4.53
2022-11-12T21:13:44.902Z,5.53
2022-11-12T21:16:13.547Z,3.90
2022-11-12T21:18:41.029Z,2.63
2022-11-12T21:21:13.760Z,4.35
2022-11-12T21:23:43.655Z,5.20
2022-11-12T21:26:13.612Z,5.47
2022-11-12T21:28:44.896Z,5.90
2022-11-12T21:31:14.791Z,2.72
2022-11-12T21:33:41.872Z,4.55
2022-11-12T21:36:14.847Z,3.72
2022-11-12T21:38:43.669Z,4.57
2022-11-12T21:41:14.137Z,3.00
2022-11-12T21:43:45.650Z,3.35
2022-11-12T21:46:24.372Z,3.03
2022-11-12T21:48:55.160Z,2.70
2022-11-12T21:51:30.177Z,4.57
2022-11-12T21:54:01.478Z,2.90
2022-11-12T21:56:28.650Z,2.08
2022-11-12T21:59:00.524Z,3.17
2022-11-12T22:01:29.965Z,3.22
2022-11-12T22:03:57.812Z,1.67
2022-11-12T22:06:27.217Z,1.98
2022-11-12T22:08:55.782Z,2.30
2022-11-12T22:11:23.204Z,2.42
2022-11-12T22:13:50.339Z,2.88
2022-11-12T22:16:19.563Z,2.00
2022-11-12T22:18:49.219Z,2.17
2022-11-12T22:21:19.031Z,2.17
2022-11-12T22:23:45.936Z,2.40
2022-11-12T22:26:15.562Z,2.75
2022-11-12T22:28:43.144Z,2.95
2022-11-12T22:31:15.692Z,2.00
2022-11-12T22:33:42.914Z,3.40
2022-11-12T22:36:20.958Z,3.30
2022-11-12T22:38:50.652Z,1.73
2022-11-12T22:41:26.622Z,3.05
2022-11-12T22:44:01.670Z,1.90
2022-11-12T22:46:36.413Z,3.05
2022-11-12T22:49:04.689Z,2.47
2022-11-12T22:51:33.175Z,2.00
2022-11-12T22:54:07.007Z,2.63
2022-11-12T22:56:33.867Z,2.08
2022-11-12T22:59:03.580Z,2.28
2022-11-12T23:01:33.813Z,2.20
2022-11-12T23:04:02.506Z,2.72
2022-11-12T23:06:30.713Z,2.42
2022-11-12T23:08:59.334Z,3.40
2022-11-12T23:11:26.520Z,2.10
2022-11-12T23:13:54.580Z,2.38
2022-11-12T23:16:29.247Z,2.88
2022-11-12T23:18:56.301Z,2.45
2022-11-12T23:21:25.411Z,3.10
2022-11-12T23:23:52.714Z,1.90
2022-11-12T23:26:22.881Z,3.35
2022-11-12T23:28:51.857Z,2.42
2022-11-12T23:31:21.844Z,3.03
2022-11-12T23:33:51.234Z,3.22
2022-11-12T23:36:20.296Z,3.22
2022-11-12T23:38:47.575Z,2.22
2022-11-12T23:41:17.642Z,3.13
2022-11-12T23:43:44.854Z,2.40
2022-11-12T23:46:12.661Z,2.25
2022-11-12T23:48:39.609Z,2.45
2022-11-12T23:51:15.059Z,2.92
2022-11-12T23:53:42.304Z,3.15
2022-11-12T23:56:11.302Z,3.13
2022-11-12T23:58:40.056Z,2.80
